createdAt,value
2022-12-16T00:09:38.560Z,79411.59
2022-12-16T00:30:57.809Z,79427.53
2022-12-16T00:33:26.098Z,79435.47
2022-12-16T00:35:54.310Z,79443.44
2022-12-16T00:38:22.143Z,79443.44
2022-12-16T00:40:48.558Z,79413.59
2022-12-16T01:38:36.536Z,79513.03
2022-12-16T01:43:51.579Z,79499.13
2022-12-16T08:42:10.067Z,79522.97
2022-12-16T09:22:44.902Z,79397.69
2022-12-16T09:25:30.032Z,79377.81
2022-12-16T09:28:15.062Z,79357.91
2022-12-16T09:31:00.298Z,79347.97
2022-12-16T09:33:45.340Z,79332.06
2022-12-16T09:36:30.634Z,79310.19
2022-12-16T09:39:16.920Z,79312.16
2022-12-16T09:42:04.074Z,79322.13
2022-12-16T09:45:17.990Z,79330.06
2022-12-16T09:48:22.169Z,79298.25
2022-12-16T09:51:09.024Z,79306.19
2022-12-16T09:53:56.687Z,79294.28
2022-12-16T09:56:48.601Z,79292.28
2022-12-16T09:59:39.157Z,79278.38
2022-12-16T10:02:30.380Z,79276.38
2022-12-16T10:05:15.650Z,79266.44
2022-12-16T10:08:19.061Z,79246.53
2022-12-16T10:11:22.541Z,79236.59
2022-12-16T10:14:19.765Z,79226.66
2022-12-16T10:17:08.153Z,79200.81
2022-12-16T10:20:09.207Z,79196.81
2022-12-16T10:23:06.429Z,79184.88
2022-12-16T10:26:04.868Z,79163.00
2022-12-16T10:29:01.268Z,79149.09
2022-12-16T10:31:46.729Z,79127.22
2022-12-16T10:34:38.718Z,79123.25
2022-12-16T10:37:24.193Z,79101.38
2022-12-16T10:40:15.458Z,79091.44
2022-12-16T10:43:45.516Z,79061.59
2022-12-16T10:46:39.501Z,79051.66
2022-12-16T10:49:24.439Z,79051.66
2022-12-16T10:52:09.459Z,79025.81
2022-12-16T10:55:01.399Z,79023.81
2022-12-16T10:57:56.912Z,78999.94
2022-12-16T11:01:00.499Z,78984.03
2022-12-16T11:03:50.994Z,78966.16
2022-12-16T11:06:41.280Z,78972.09
2022-12-16T11:09:41.439Z,78960.19
2022-12-16T11:12:38.972Z,78940.28
2022-12-16T11:15:42.803Z,78932.34
2022-12-16T11:18:35.861Z,78930.34
2022-12-16T11:21:40.764Z,78912.44
2022-12-16T11:24:30.997Z,78902.50
2022-12-16T11:27:18.718Z,78890.56
2022-12-16T11:30:36.966Z,78876.66
2022-12-16T11:33:42.817Z,78886.59
2022-12-16T11:36:57.894Z,78878.66
2022-12-16T11:39:45.868Z,78858.75
2022-12-16T11:42:41.241Z,78862.75
2022-12-16T11:45:34.084Z,78852.78
2022-12-16T11:48:46.974Z,78848.81
2022-12-16T11:51:35.159Z,78840.88
2022-12-16T11:54:37.304Z,78824.97
2022-12-16T11:57:24.761Z,78824.97
2022-12-16T12:00:15.255Z,78822.97
2022-12-16T12:03:20.569Z,78809.06
2022-12-16T12:06:27.147Z,78801.09
2022-12-16T12:09:26.488Z,78807.06
2022-12-16T12:12:18.820Z,78809.06
2022-12-16T12:15:13.182Z,78801.09
2022-12-16T12:18:10.812Z,78801.09
2022-12-16T12:21:08.774Z,78793.13
2022-12-16T12:24:16.427Z,78761.31
2022-12-16T12:27:26.548Z,78753.38
2022-12-16T12:30:19.107Z,78745.41
2022-12-16T12:33:27.141Z,78737.47
2022-12-16T12:36:38.708Z,78723.53
2022-12-16T12:39:47.022Z,78715.59
2022-12-16T12:42:54.960Z,78695.72
2022-12-16T12:45:57.593Z,78713.59
2022-12-16T12:49:02.610Z,78701.66
2022-12-16T12:52:19.165Z,78703.66
2022-12-16T12:55:14.977Z,78691.72
2022-12-16T12:58:03.944Z,78713.59
2022-12-16T13:00:53.400Z,78709.63
2022-12-16T13:03:53.298Z,78719.56
2022-12-16T13:06:39.731Z,78705.66
2022-12-16T13:09:54.244Z,78715.59
2022-12-16T13:12:52.536Z,78705.66
2022-12-16T13:15:53.862Z,78711.63
2022-12-16T13:18:43.944Z,78693.72
2022-12-16T13:21:56.271Z,78691.72
2022-12-16T13:24:41.729Z,78677.81
2022-12-16T13:27:34.754Z,78709.63
2022-12-16T13:30:42.184Z,78709.63
2022-12-16T13:33:48.242Z,78733.50
2022-12-16T13:36:36.680Z,78741.44
2022-12-16T13:39:39.819Z,78753.38
2022-12-16T13:42:25.012Z,78753.38
2022-12-16T13:45:09.901Z,78749.41
2022-12-16T13:48:01.071Z,78741.44
2022-12-16T13:51:01.024Z,78725.53
2022-12-16T13:53:49.307Z,78719.56
2022-12-16T13:56:39.212Z,78723.53
2022-12-16T13:59:33.117Z,78745.41
2022-12-16T14:02:33.155Z,78749.41
2022-12-16T14:05:18.647Z,78735.47
2022-12-16T14:08:04.328Z,78761.31
2022-12-16T14:10:53.485Z,78757.34
2022-12-16T14:13:58.815Z,78763.31
2022-12-16T14:17:05.530Z,78767.28
2022-12-16T14:20:08.923Z,78777.22
2022-12-16T14:23:08.527Z,78771.28
2022-12-16T14:25:53.777Z,78783.19
2022-12-16T14:28:55.555Z,78785.19
2022-12-16T14:31:52.203Z,78781.22
2022-12-16T14:34:40.509Z,78813.03
2022-12-16T14:37:39.957Z,78834.91
2022-12-16T14:40:50.014Z,78820.97
2022-12-16T14:43:39.175Z,78820.97
2022-12-16T14:46:25.138Z,78817.00
2022-12-16T14:49:10.513Z,78822.97
2022-12-16T14:52:03.369Z,78832.91
2022-12-16T14:54:57.882Z,78840.88
2022-12-16T14:57:45.576Z,78850.81
2022-12-16T15:00:32.486Z,78856.78
2022-12-16T15:03:34.601Z,78850.81
2022-12-16T15:06:22.841Z,78868.69
2022-12-16T15:09:14.387Z,78842.84
2022-12-16T15:12:02.097Z,78862.75
2022-12-16T15:14:52.560Z,78868.69
2022-12-16T15:18:02.938Z,78860.75
2022-12-16T15:20:50.967Z,78888.59
2022-12-16T15:23:39.164Z,78910.47
2022-12-16T15:26:25.810Z,78898.53
2022-12-16T15:29:11.673Z,78906.47
2022-12-16T15:32:03.107Z,78906.47
2022-12-16T15:34:56.311Z,78890.56
2022-12-16T15:37:54.189Z,78892.56
2022-12-16T15:40:46.509Z,78912.44
2022-12-16T15:43:45.864Z,78912.44
2022-12-16T15:46:53.959Z,78914.44
2022-12-16T15:49:59.198Z,78930.34
2022-12-16T15:52:56.409Z,78934.31
2022-12-16T15:55:51.594Z,78940.28
2022-12-16T15:58:55.783Z,78944.28
2022-12-16T16:01:46.225Z,78952.22
2022-12-16T16:04:45.571Z,78946.25
2022-12-16T16:07:35.179Z,78948.25
2022-12-16T16:10:41.349Z,78940.28
2022-12-16T16:13:27.130Z,78946.25
2022-12-16T16:16:12.553Z,78932.34
2022-12-16T16:18:59.384Z,78944.28
2022-12-16T16:21:45.307Z,78956.19
2022-12-16T16:24:30.571Z,78950.22
2022-12-16T16:27:19.476Z,78960.19
2022-12-16T16:30:04.288Z,78950.22
2022-12-16T16:32:49.175Z,78950.22
2022-12-16T16:35:33.989Z,78928.34
2022-12-16T16:38:19.169Z,78940.28
2022-12-16T16:41:05.474Z,78948.25
2022-12-16T16:43:50.884Z,78952.22
2022-12-16T16:46:35.829Z,78946.25
2022-12-16T16:49:20.921Z,78954.22
2022-12-16T16:52:05.856Z,78954.22
2022-12-16T16:54:50.745Z,78938.31
2022-12-16T16:57:35.655Z,78976.09
2022-12-16T17:00:21.020Z,78960.19
2022-12-16T17:03:06.215Z,78960.19
2022-12-16T17:05:50.960Z,78966.16
2022-12-16T17:08:35.732Z,78962.16
2022-12-16T17:11:21.146Z,78958.19
2022-12-16T17:14:05.926Z,78958.19
2022-12-16T17:16:51.264Z,78980.06
2022-12-16T17:19:36.136Z,78978.06
2022-12-16T17:22:21.192Z,78992.00
2022-12-16T17:25:05.818Z,78962.16
2022-12-16T17:27:50.760Z,78952.22
2022-12-16T17:30:44.904Z,78984.03
2022-12-16T17:33:31.876Z,78980.06
2022-12-16T17:36:16.956Z,78993.97
2022-12-16T17:39:02.851Z,78970.13
2022-12-16T17:41:49.889Z,78993.97
2022-12-16T17:44:35.007Z,78962.16
2022-12-16T17:47:20.469Z,78972.09
2022-12-16T17:50:05.273Z,78992.00
2022-12-16T17:52:50.660Z,78990.00
2022-12-16T17:55:36.343Z,78993.97
2022-12-16T17:58:21.807Z,79005.91
2022-12-16T18:01:07.179Z,78984.03
2022-12-16T18:03:52.347Z,79029.78
2022-12-16T18:06:38.599Z,79041.72
2022-12-16T18:09:23.387Z,79053.63
2022-12-16T18:12:08.861Z,79047.69
2022-12-16T18:14:53.918Z,79027.78
2022-12-16T18:17:38.928Z,79021.81
2022-12-16T18:20:24.900Z,79051.66
2022-12-16T18:23:13.583Z,79067.56
2022-12-16T18:25:58.572Z,79041.72
2022-12-16T18:28:43.435Z,79041.72
2022-12-16T18:31:28.904Z,79031.75
2022-12-16T18:34:14.058Z,79077.50
2022-12-16T18:36:58.852Z,79021.81
2022-12-16T18:39:43.780Z,79015.84
2022-12-16T18:42:28.639Z,79039.72
2022-12-16T18:45:13.884Z,79031.75
2022-12-16T18:47:58.907Z,79017.84
2022-12-16T18:50:43.952Z,79023.81
2022-12-16T18:53:28.828Z,79067.56
2022-12-16T18:56:25.868Z,79055.63
2022-12-16T18:59:11.323Z,79047.69
2022-12-16T19:01:56.613Z,79059.59
2022-12-16T19:04:41.781Z,79059.59
2022-12-16T19:07:26.888Z,79079.50
2022-12-16T19:10:11.922Z,79063.59
2022-12-16T19:12:57.331Z,79067.56
2022-12-16T19:15:42.650Z,79071.53
2022-12-16T19:18:29.751Z,79075.50
2022-12-16T19:21:35.222Z,79087.44
2022-12-16T19:24:20.015Z,79099.38
2022-12-16T19:27:06.498Z,79103.34
2022-12-16T19:29:53.029Z,79091.44
2022-12-16T19:32:38.641Z,79087.44
2022-12-16T19:35:24.000Z,79079.50
2022-12-16T19:38:09.032Z,79095.41
2022-12-16T19:40:54.556Z,79081.47
2022-12-16T19:43:41.375Z,79099.38
2022-12-16T19:46:26.697Z,79115.28
2022-12-16T19:49:11.516Z,79109.31
2022-12-16T19:51:56.450Z,79091.44
2022-12-16T19:54:41.325Z,79103.34
2022-12-16T19:57:26.351Z,79101.38
2022-12-16T20:00:11.369Z,79123.25
2022-12-16T20:02:57.346Z,79107.34
2022-12-16T20:05:42.773Z,79115.28
2022-12-16T20:08:27.638Z,79115.28
2022-12-16T20:11:12.432Z,79141.13
2022-12-16T20:13:57.348Z,79113.31
2022-12-16T20:16:42.128Z,79119.25
2022-12-16T20:19:26.988Z,79143.13
2022-12-16T20:22:14.516Z,79172.97
2022-12-16T20:25:01.158Z,79174.94
2022-12-16T20:27:46.066Z,79204.78
2022-12-16T20:30:30.927Z,79159.03
2022-12-16T20:33:15.657Z,79167.00
2022-12-16T20:36:02.692Z,79151.09
2022-12-16T20:38:47.911Z,79170.97
2022-12-16T20:41:33.253Z,79163.00
2022-12-16T20:44:18.329Z,79151.09
2022-12-16T20:47:03.503Z,79186.88
2022-12-16T20:49:48.411Z,79178.94
2022-12-16T20:52:33.269Z,79172.97
2022-12-16T20:55:18.157Z,79168.97
2022-12-16T20:58:02.898Z,79174.94
2022-12-16T21:00:47.793Z,79165.00
2022-12-16T21:03:32.613Z,79163.00
2022-12-16T21:06:17.359Z,79155.06
2022-12-16T21:09:02.064Z,79157.06
2022-12-16T21:11:47.607Z,79165.00
2022-12-16T21:14:32.572Z,79178.94
2022-12-16T21:17:17.444Z,79168.97
2022-12-16T21:20:02.254Z,79178.94
2022-12-16T21:22:47.394Z,79165.00
2022-12-16T21:25:32.758Z,79174.94
2022-12-16T21:28:18.667Z,79180.91
2022-12-16T21:31:04.299Z,79184.88
2022-12-16T21:33:49.875Z,79216.72
2022-12-16T21:36:35.022Z,79194.84
2022-12-16T21:39:20.444Z,79190.84
2022-12-16T21:42:05.268Z,79194.84
2022-12-16T21:44:50.242Z,79180.91
2022-12-16T21:47:35.069Z,79222.69
2022-12-16T21:50:20.163Z,79218.69
2022-12-16T21:53:08.093Z,79220.69
2022-12-16T21:55:52.897Z,79220.69
2022-12-16T21:58:38.795Z,79238.59
2022-12-16T22:01:24.100Z,79226.66
2022-12-16T22:04:09.258Z,79220.69
2022-12-16T22:06:54.696Z,79224.66
2022-12-16T22:09:40.315Z,79236.59
2022-12-16T22:12:25.213Z,79258.47
2022-12-16T22:15:09.987Z,79282.34
2022-12-16T22:17:58.507Z,79244.56
2022-12-16T22:20:44.058Z,79226.66
2022-12-16T22:23:28.816Z,79220.69
2022-12-16T22:26:18.184Z,79214.72
2022-12-16T22:29:03.070Z,79222.69
2022-12-16T22:31:48.225Z,79242.56
2022-12-16T22:34:33.511Z,79214.72
2022-12-16T22:37:18.418Z,79208.75
2022-12-16T22:40:03.234Z,79220.69
2022-12-16T22:42:48.079Z,79226.66
2022-12-16T22:45:33.541Z,79240.56
2022-12-16T22:48:18.682Z,79252.50
2022-12-16T22:51:03.725Z,79230.63
2022-12-16T22:53:48.795Z,79230.63
2022-12-16T22:56:33.625Z,79246.53
2022-12-16T22:59:18.519Z,79242.56
2022-12-16T23:02:03.277Z,79260.47
2022-12-16T23:04:48.089Z,79282.34
2022-12-16T23:07:32.971Z,79286.31
2022-12-16T23:10:17.885Z,79292.28
2022-12-16T23:13:03.130Z,79266.44
2022-12-16T23:15:48.076Z,79268.41
2022-12-16T23:18:33.058Z,79262.44
2022-12-16T23:21:28.889Z,79230.63
2022-12-16T23:24:13.641Z,79246.53
2022-12-16T23:27:01.924Z,79260.47
2022-12-16T23:29:46.735Z,79302.22
2022-12-16T23:32:31.697Z,79312.16
2022-12-16T23:35:16.901Z,79298.25
2022-12-16T23:38:09.372Z,79294.28
2022-12-16T23:40:54.194Z,79276.38
2022-12-16T23:43:39.426Z,79274.38
2022-12-16T23:46:24.949Z,79288.31
2022-12-16T23:49:09.683Z,79266.44
2022-12-16T23:51:54.546Z,79292.28
2022-12-16T23:54:41.452Z,79276.38
2022-12-16T23:57:26.212Z,79266.44
